createdAt,value
2022-09-07T00:00:13.265Z,17.38
2022-09-07T00:02:42.525Z,17.43
2022-09-07T00:05:12.143Z,17.54
2022-09-07T00:07:41.350Z,17.45
2022-09-07T00:10:11.297Z,17.56
2022-09-07T00:12:40.688Z,17.41
2022-09-07T00:15:13.346Z,17.58
2022-09-07T00:17:42.255Z,17.54
2022-09-07T00:20:13.418Z,17.61
2022-09-07T00:22:42.556Z,17.56
2022-09-07T00:25:11.737Z,17.61
2022-09-07T00:27:41.427Z,17.62
2022-09-07T00:30:13.210Z,17.62
2022-09-07T00:32:42.365Z,17.63
2022-09-07T00:35:12.785Z,17.66
2022-09-07T00:37:41.933Z,17.66
2022-09-07T00:40:11.870Z,17.67
2022-09-07T00:42:41.136Z,17.66
2022-09-07T00:45:17.880Z,17.60
2022-09-07T00:47:55.912Z,17.54
2022-09-07T00:50:30.263Z,17.62
2022-09-07T00:53:06.331Z,17.70
2022-09-07T00:55:39.388Z,17.70
2022-09-07T00:58:09.550Z,17.72
2022-09-07T01:00:42.488Z,17.77
2022-09-07T01:03:12.780Z,17.80
2022-09-07T01:05:47.504Z,17.74
2022-09-07T01:08:17.413Z,17.80
2022-09-07T01:10:47.510Z,17.74
2022-09-07T01:13:16.691Z,17.68
2022-09-07T01:15:59.508Z,17.53
2022-09-07T01:18:37.345Z,17.63
2022-09-07T01:21:26.535Z,17.70
2022-09-07T01:24:42.547Z,17.75
2022-09-07T01:27:56.866Z,17.71
2022-09-07T01:30:26.935Z,17.77
2022-09-07T01:33:24.194Z,17.81
2022-09-07T01:36:07.059Z,17.75
2022-09-07T01:38:39.593Z,17.84
2022-09-07T01:41:16.589Z,17.84
2022-09-07T01:43:53.884Z,17.78
2022-09-07T01:46:31.245Z,17.85
2022-09-07T01:49:10.585Z,17.80
2022-09-07T01:51:46.223Z,17.72
2022-09-07T01:54:23.584Z,17.77
2022-09-07T01:56:59.710Z,17.69
2022-09-07T01:59:35.430Z,17.68
2022-09-07T02:02:10.318Z,17.66
2022-09-07T02:04:44.812Z,17.67
2022-09-07T02:07:21.741Z,17.56
2022-09-07T02:09:58.163Z,17.61
2022-09-07T02:12:38.466Z,17.56
2022-09-07T02:15:15.858Z,17.57
2022-09-07T02:17:49.660Z,17.55
2022-09-07T02:20:23.899Z,17.53
2022-09-07T02:22:57.421Z,17.50
2022-09-07T02:25:30.697Z,17.53
2022-09-07T02:28:06.393Z,17.52
2022-09-07T02:30:37.183Z,17.49
2022-09-07T02:33:06.856Z,17.55
2022-09-07T02:35:36.690Z,17.50
2022-09-07T02:38:08.542Z,17.49
2022-09-07T02:40:37.853Z,17.52
2022-09-07T02:43:09.950Z,17.44
2022-09-07T02:45:58.753Z,17.45
2022-09-07T02:48:40.600Z,17.40
2022-09-07T02:51:19.071Z,17.39
2022-09-07T02:54:25.401Z,17.38
2022-09-07T02:57:06.450Z,17.41
2022-09-07T02:59:49.646Z,17.31
2022-09-07T03:02:30.503Z,17.41
2022-09-07T03:05:06.945Z,17.41
2022-09-07T03:07:44.144Z,17.46
2022-09-07T03:10:17.069Z,17.46
2022-09-07T03:12:47.907Z,17.38
2022-09-07T03:15:19.895Z,17.49
2022-09-07T03:17:50.563Z,17.50
2022-09-07T03:20:21.196Z,17.45
2022-09-07T03:22:52.819Z,17.43
2022-09-07T03:25:22.985Z,17.49
2022-09-07T03:27:52.251Z,17.50
2022-09-07T03:30:21.729Z,17.46
2022-09-07T03:32:52.801Z,17.50
2022-09-07T03:35:22.592Z,17.37
2022-09-07T03:37:51.953Z,17.51
2022-09-07T03:40:21.317Z,17.46
2022-09-07T03:42:51.193Z,17.40
2022-09-07T03:45:20.961Z,17.33
2022-09-07T03:47:51.525Z,17.40
2022-09-07T03:50:20.739Z,17.43
2022-09-07T03:52:49.921Z,17.29
2022-09-07T03:55:19.134Z,17.39
2022-09-07T03:57:48.417Z,17.43
2022-09-07T04:00:18.004Z,17.42
2022-09-07T04:02:47.184Z,17.42
2022-09-07T04:05:18.265Z,17.40
2022-09-07T04:07:49.802Z,17.46
2022-09-07T04:10:19.235Z,17.44
2022-09-07T04:12:48.409Z,17.44
2022-09-07T04:15:17.826Z,17.29
2022-09-07T04:17:47.088Z,17.49
2022-09-07T04:20:17.845Z,17.38
2022-09-07T04:22:53.661Z,17.46
2022-09-07T04:25:23.463Z,17.47
2022-09-07T04:27:52.744Z,17.49
2022-09-07T04:30:21.889Z,17.48
2022-09-07T04:32:51.271Z,17.47
2022-09-07T04:35:23.023Z,17.46
2022-09-07T04:37:52.296Z,17.45
2022-09-07T04:40:21.638Z,17.41
2022-09-07T04:42:51.331Z,17.40
2022-09-07T04:45:20.582Z,17.42
2022-09-07T04:47:49.996Z,17.40
2022-09-07T04:50:19.792Z,17.31
2022-09-07T04:52:50.654Z,17.37
2022-09-07T04:55:19.821Z,17.35
2022-09-07T04:57:51.226Z,17.31
2022-09-07T05:00:20.683Z,17.27
2022-09-07T05:02:49.939Z,17.29
2022-09-07T05:05:19.711Z,17.31
2022-09-07T05:07:50.311Z,17.28
2022-09-07T05:10:19.691Z,17.29
2022-09-07T05:12:48.955Z,17.26
2022-09-07T05:15:18.231Z,17.26
2022-09-07T05:17:47.518Z,17.25
2022-09-07T05:20:20.190Z,17.13
2022-09-07T05:22:59.603Z,17.21
2022-09-07T05:25:30.264Z,17.15
2022-09-07T05:27:59.838Z,17.21
2022-09-07T05:33:18.299Z,17.22
2022-09-07T05:35:58.521Z,17.24
2022-09-07T05:38:29.805Z,17.30
2022-09-07T05:40:59.511Z,17.30
2022-09-07T05:43:28.710Z,17.31
2022-09-07T05:45:57.967Z,17.31
2022-09-07T05:48:27.558Z,17.30
2022-09-07T05:50:56.863Z,17.25
2022-09-07T05:53:26.081Z,17.32
2022-09-07T05:56:03.958Z,17.31
2022-09-07T05:58:36.772Z,17.30
2022-09-07T06:01:09.261Z,17.31
2022-09-07T06:03:40.731Z,17.31
2022-09-07T06:06:12.567Z,17.27
2022-09-07T06:08:47.718Z,17.32
2022-09-07T06:11:20.885Z,17.32
2022-09-07T06:13:50.554Z,17.25
2022-09-07T06:16:20.950Z,17.32
2022-09-07T06:18:51.311Z,17.25
2022-09-07T06:21:22.141Z,17.33
2022-09-07T06:23:52.668Z,17.32
2022-09-07T06:26:23.290Z,17.38
2022-09-07T06:28:57.209Z,17.41
2022-09-07T06:31:28.520Z,17.41
2022-09-07T06:33:58.916Z,17.34
2022-09-07T06:36:29.740Z,17.38
2022-09-07T06:39:01.574Z,17.31
2022-09-07T06:44:23.504Z,17.42
2022-09-07T06:49:29.051Z,17.33
2022-09-07T06:51:58.272Z,17.36
2022-09-07T06:57:18.104Z,17.34
2022-09-07T06:59:47.399Z,17.35
2022-09-07T07:02:16.586Z,17.38
2022-09-07T07:04:46.730Z,17.36
2022-09-07T07:07:16.202Z,17.28
2022-09-07T07:09:45.477Z,17.32
2022-09-07T07:12:14.739Z,17.29
2022-09-07T07:14:45.485Z,17.33
2022-09-07T07:17:14.878Z,17.25
2022-09-07T07:19:44.190Z,17.36
2022-09-07T07:22:42.603Z,17.47
2022-09-07T07:25:03.516Z,17.41
2022-09-07T07:27:32.898Z,17.44
2022-09-07T07:30:03.860Z,17.52
2022-09-07T07:32:33.200Z,17.41
2022-09-07T07:35:02.444Z,17.60
2022-09-07T07:37:32.434Z,17.72
2022-09-07T07:40:19.123Z,17.70
2022-09-07T07:42:50.999Z,17.73
2022-09-07T07:48:13.786Z,17.71
2022-09-07T07:50:42.911Z,17.75
2022-09-07T07:56:02.148Z,17.70
2022-09-07T07:58:32.675Z,17.68
2022-09-07T08:01:08.158Z,17.70
2022-09-07T08:03:40.320Z,17.66
2022-09-07T08:06:11.632Z,17.62
2022-09-07T08:08:43.153Z,17.61
2022-09-07T08:11:16.940Z,17.55
2022-09-07T08:13:49.604Z,17.67
2022-09-07T08:16:20.363Z,17.90
2022-09-07T08:18:49.738Z,18.12
2022-09-07T08:21:18.983Z,18.22
2022-09-07T08:23:48.168Z,18.31
2022-09-07T08:26:17.342Z,18.37
2022-09-07T08:28:46.825Z,18.34
2022-09-07T08:31:17.908Z,18.38
2022-09-07T08:33:48.508Z,18.37
2022-09-07T08:36:19.992Z,18.30
2022-09-07T08:38:49.588Z,18.54
2022-09-07T08:41:47.421Z,18.62
2022-09-07T08:44:24.923Z,18.60
2022-09-07T08:47:00.417Z,18.56
2022-09-07T08:49:41.066Z,18.53
2022-09-07T08:52:15.377Z,18.41
2022-09-07T08:54:58.497Z,18.42
2022-09-07T08:57:34.035Z,18.27
2022-09-07T09:00:08.741Z,18.39
2022-09-07T09:02:43.562Z,18.39
2022-09-07T09:05:40.807Z,18.34
2022-09-07T09:08:25.534Z,18.32
2022-09-07T09:11:05.385Z,18.42
2022-09-07T09:13:48.855Z,18.43
2022-09-07T09:16:24.885Z,18.48
2022-09-07T09:19:20.261Z,18.51
2022-09-07T09:21:53.834Z,18.69
2022-09-07T09:24:33.595Z,18.85
2022-09-07T09:27:02.733Z,19.01
2022-09-07T09:29:32.227Z,19.16
2022-09-07T09:32:01.448Z,19.24
2022-09-07T09:34:34.684Z,19.27
2022-09-07T09:37:06.045Z,19.21
2022-09-07T09:39:36.929Z,19.15
2022-09-07T09:42:18.610Z,19.06
2022-09-07T09:44:48.661Z,18.98
2022-09-07T09:47:32.748Z,18.89
2022-09-07T09:50:08.102Z,18.78
2022-09-07T09:52:47.946Z,18.88
2022-09-07T09:55:35.466Z,18.82
2022-09-07T10:06:23.758Z,18.89
2022-09-07T10:08:58.623Z,18.98
2022-09-07T10:14:43.432Z,19.23
2022-09-07T10:17:15.883Z,19.44
2022-09-07T10:19:45.254Z,19.63
2022-09-07T10:22:33.249Z,19.63
2022-09-07T10:25:04.810Z,19.59
2022-09-07T10:27:37.063Z,19.64
2022-09-07T10:30:16.323Z,19.55
2022-09-07T10:33:03.180Z,19.53
2022-09-07T10:35:36.842Z,19.51
2022-09-07T10:38:17.676Z,19.55
2022-09-07T10:40:54.964Z,19.46
2022-09-07T10:43:42.497Z,19.60
2022-09-07T10:49:25.679Z,19.93
2022-09-07T10:52:14.390Z,20.01
2022-09-07T10:54:55.283Z,20.22
2022-09-07T10:57:39.316Z,20.05
2022-09-07T11:00:14.467Z,20.31
2022-09-07T11:03:26.694Z,20.21
2022-09-07T11:06:12.155Z,20.16
2022-09-07T11:09:17.836Z,20.07
2022-09-07T11:12:03.586Z,20.08
2022-09-07T11:14:43.758Z,20.02
2022-09-07T11:17:19.385Z,19.82
2022-09-07T11:19:57.511Z,20.04
2022-09-07T11:22:36.339Z,20.04
2022-09-07T11:25:34.031Z,19.99
2022-09-07T11:28:09.978Z,19.84
2022-09-07T11:30:47.287Z,19.52
2022-09-07T11:33:22.977Z,19.78
2022-09-07T11:35:58.932Z,19.65
2022-09-07T11:38:35.382Z,19.41
2022-09-07T11:41:24.841Z,19.52
2022-09-07T11:44:07.982Z,19.44
2022-09-07T11:46:46.002Z,19.35
2022-09-07T11:49:21.334Z,19.31
2022-09-07T11:51:55.048Z,19.27
2022-09-07T11:54:39.710Z,19.26
2022-09-07T11:57:38.276Z,19.24
2022-09-07T12:00:19.061Z,19.41
2022-09-07T12:03:34.548Z,19.54
2022-09-07T12:07:03.637Z,19.65
2022-09-07T12:09:58.533Z,19.71
2022-09-07T12:13:14.963Z,19.81
2022-09-07T12:15:55.136Z,19.95
2022-09-07T12:18:56.826Z,20.05
2022-09-07T12:21:41.605Z,20.62
2022-09-07T12:24:42.495Z,21.41
2022-09-07T12:27:40.034Z,22.31
2022-09-07T12:30:57.187Z,22.98
2022-09-07T12:33:36.990Z,22.86
2022-09-07T12:36:50.154Z,22.59
2022-09-07T12:39:28.620Z,22.44
2022-09-07T12:42:32.518Z,22.21
2022-09-07T12:45:51.229Z,22.10
2022-09-07T12:48:44.493Z,21.93
2022-09-07T12:54:23.499Z,21.92
2022-09-07T13:00:04.475Z,22.03
2022-09-07T13:09:34.495Z,23.25
2022-09-07T13:15:42.373Z,23.12
2022-09-07T13:18:28.635Z,23.37
2022-09-07T13:21:37.567Z,23.32
2022-09-07T13:24:46.321Z,23.15
2022-09-07T13:27:47.035Z,23.03
2022-09-07T13:30:46.883Z,22.91
2022-09-07T13:33:48.341Z,22.80
2022-09-07T13:36:45.951Z,22.64
2022-09-07T13:39:21.075Z,22.48
2022-09-07T13:41:54.379Z,22.32
2022-09-07T13:44:26.997Z,22.26
2022-09-07T13:47:10.312Z,22.14
2022-09-07T13:49:58.892Z,22.10
2022-09-07T13:52:45.044Z,22.13
2022-09-07T13:55:34.372Z,22.17
2022-09-07T13:58:17.954Z,22.27
2022-09-07T14:00:56.068Z,22.26
2022-09-07T14:03:28.981Z,22.16
2022-09-07T14:06:18.181Z,22.21
2022-09-07T14:08:51.650Z,22.16
2022-09-07T14:11:23.457Z,22.09
2022-09-07T14:14:16.218Z,22.05
2022-09-07T14:16:49.265Z,22.10
2022-09-07T14:19:26.097Z,22.34
2022-09-07T14:22:03.402Z,22.87
2022-09-07T14:24:37.525Z,23.11
2022-09-07T14:27:19.635Z,23.43
2022-09-07T14:29:49.130Z,23.73
2022-09-07T14:32:23.637Z,23.66
2022-09-07T14:34:53.504Z,23.39
2022-09-07T14:37:24.994Z,23.29
2022-09-07T14:39:56.477Z,23.02
2022-09-07T14:42:26.680Z,22.65
2022-09-07T14:45:34.039Z,22.45
2022-09-07T14:48:16.386Z,22.27
2022-09-07T14:51:01.003Z,22.12
2022-09-07T14:53:39.592Z,22.00
2022-09-07T14:56:12.304Z,21.58
2022-09-07T14:58:41.755Z,21.66
2022-09-07T15:04:20.293Z,21.54
2022-09-07T15:07:04.793Z,21.46
2022-09-07T15:09:38.735Z,21.42
2022-09-07T15:12:29.991Z,21.64
2022-09-07T15:15:22.141Z,21.44
2022-09-07T15:17:51.983Z,21.75
2022-09-07T15:20:37.439Z,21.78
2022-09-07T15:23:10.478Z,21.77
2022-09-07T15:25:41.220Z,21.92
2022-09-07T15:34:10.137Z,22.47
2022-09-07T15:36:41.183Z,22.47
2022-09-07T15:39:18.559Z,22.46
2022-09-07T15:41:48.109Z,22.34
2022-09-07T15:44:24.955Z,22.09
2022-09-07T15:49:50.250Z,21.76
2022-09-07T15:52:20.881Z,21.56
2022-09-07T15:54:50.205Z,21.18
2022-09-07T16:00:12.931Z,21.31
2022-09-07T16:05:31.739Z,21.23
2022-09-07T16:10:55.550Z,21.27
2022-09-07T16:13:25.728Z,21.22
2022-09-07T16:15:59.964Z,21.41
2022-09-07T16:18:33.034Z,21.44
2022-09-07T16:21:11.857Z,21.48
2022-09-07T16:23:44.477Z,21.58
2022-09-07T16:26:14.816Z,21.47
2022-09-07T16:28:46.827Z,21.63
2022-09-07T16:31:22.352Z,21.71
2022-09-07T16:33:51.936Z,21.73
2022-09-07T16:36:23.704Z,21.73
2022-09-07T16:38:59.174Z,21.80
2022-09-07T16:41:31.681Z,21.77
2022-09-07T16:44:01.111Z,21.71
2022-09-07T16:46:34.865Z,21.71
2022-09-07T16:49:05.628Z,21.70
2022-09-07T16:51:35.671Z,21.61
2022-09-07T16:54:04.985Z,21.45
2022-09-07T16:56:38.821Z,21.45
2022-09-07T16:59:10.504Z,21.41
2022-09-07T17:01:41.146Z,21.41
2022-09-07T17:04:11.637Z,21.23
2022-09-07T17:06:41.768Z,21.19
2022-09-07T17:09:15.026Z,21.08
2022-09-07T17:11:44.420Z,21.08
2022-09-07T17:14:14.138Z,21.01
2022-09-07T17:16:44.901Z,20.92
2022-09-07T17:19:31.852Z,20.79
2022-09-07T17:22:01.782Z,20.74
2022-09-07T17:24:32.252Z,20.60
2022-09-07T17:27:03.135Z,20.75
2022-09-07T17:29:37.021Z,20.61
2022-09-07T17:32:24.888Z,20.53
2022-09-07T17:34:55.500Z,20.56
2022-09-07T17:37:25.663Z,20.56
2022-09-07T17:39:55.076Z,20.58
2022-09-07T17:42:26.287Z,20.60
2022-09-07T17:45:14.917Z,20.47
2022-09-07T17:47:45.838Z,20.46
2022-09-07T17:50:15.555Z,20.37
2022-09-07T17:52:46.035Z,20.43
2022-09-07T17:55:15.519Z,20.34
2022-09-07T17:57:44.712Z,20.23
2022-09-07T18:00:15.881Z,20.28
2022-09-07T18:02:46.595Z,20.18
2022-09-07T18:05:15.886Z,20.03
2022-09-07T18:07:45.083Z,19.90
2022-09-07T18:10:14.571Z,19.92
2022-09-07T18:12:43.752Z,19.74
2022-09-07T18:15:13.115Z,19.81
2022-09-07T18:17:42.441Z,19.71
2022-09-07T18:20:13.105Z,19.70
2022-09-07T18:22:42.553Z,19.65
2022-09-07T18:25:11.952Z,19.62
2022-09-07T18:27:41.397Z,19.63
2022-09-07T18:30:12.318Z,19.56
2022-09-07T18:32:41.514Z,19.64
2022-09-07T18:35:12.724Z,19.55
2022-09-07T18:37:42.045Z,19.54
2022-09-07T18:40:12.210Z,19.55
2022-09-07T18:42:42.044Z,19.46
2022-09-07T18:45:27.761Z,19.55
2022-09-07T18:47:57.501Z,19.20
2022-09-07T18:50:28.039Z,19.37
2022-09-07T18:53:04.126Z,19.38
2022-09-07T18:55:43.502Z,19.30
2022-09-07T18:58:12.645Z,19.09
2022-09-07T19:00:45.337Z,19.23
2022-09-07T19:03:14.972Z,19.18
2022-09-07T19:05:50.543Z,19.18
2022-09-07T19:08:28.634Z,19.08
2022-09-07T19:10:58.107Z,19.12
2022-09-07T19:13:27.617Z,19.11
2022-09-07T19:16:07.723Z,19.12
2022-09-07T19:18:40.540Z,19.16
2022-09-07T19:21:16.707Z,19.13
2022-09-07T19:23:53.501Z,19.03
2022-09-07T19:26:23.424Z,19.30
2022-09-07T19:28:54.981Z,19.18
2022-09-07T19:31:25.560Z,19.14
2022-09-07T19:33:56.991Z,18.99
2022-09-07T19:36:28.537Z,19.00
2022-09-07T19:38:58.059Z,19.13
2022-09-07T19:41:28.318Z,19.11
2022-09-07T19:44:01.878Z,18.71
2022-09-07T19:46:31.685Z,18.97
2022-09-07T19:49:02.952Z,19.12
2022-09-07T19:51:39.352Z,18.85
2022-09-07T19:54:15.401Z,18.98
2022-09-07T19:56:46.643Z,18.80
2022-09-07T19:59:16.370Z,18.87
2022-09-07T20:01:48.017Z,18.82
2022-09-07T20:04:20.545Z,19.05
2022-09-07T20:06:56.519Z,19.05
2022-09-07T20:09:29.429Z,18.94
2022-09-07T20:12:01.973Z,18.87
2022-09-07T20:14:31.287Z,18.78
2022-09-07T20:17:01.454Z,18.92
2022-09-07T20:19:31.085Z,18.95
2022-09-07T20:22:01.824Z,18.90
2022-09-07T20:24:31.450Z,18.83
2022-09-07T20:27:02.829Z,18.83
2022-09-07T20:29:32.522Z,18.87
2022-09-07T20:32:05.258Z,18.90
2022-09-07T20:34:37.880Z,18.85
2022-09-07T20:37:08.346Z,18.91
2022-09-07T20:39:39.604Z,18.72
2022-09-07T20:42:09.173Z,18.77
2022-09-07T20:44:38.588Z,18.67
2022-09-07T20:47:07.979Z,18.68
2022-09-07T20:49:37.438Z,18.68
2022-09-07T20:52:08.168Z,18.70
2022-09-07T20:54:38.934Z,18.65
2022-09-07T20:57:08.213Z,18.51
2022-09-07T20:59:37.473Z,18.48
2022-09-07T21:02:07.173Z,18.48
2022-09-07T21:04:36.995Z,18.53
2022-09-07T21:07:07.621Z,18.46
2022-09-07T21:09:37.069Z,18.39
2022-09-07T21:12:06.630Z,18.26
2022-09-07T21:14:36.177Z,18.43
2022-09-07T21:17:05.860Z,18.35
2022-09-07T21:19:36.976Z,18.37
2022-09-07T21:22:07.698Z,18.39
2022-09-07T21:24:36.914Z,18.32
2022-09-07T21:27:07.024Z,18.32
2022-09-07T21:29:36.351Z,18.18
2022-09-07T21:32:06.217Z,18.37
2022-09-07T21:34:35.453Z,18.37
2022-09-07T21:37:04.683Z,18.33
2022-09-07T21:39:35.356Z,18.40
2022-09-07T21:42:05.568Z,18.41
2022-09-07T21:44:34.711Z,18.40
2022-09-07T21:47:03.882Z,18.39
2022-09-07T21:49:33.228Z,18.43
2022-09-07T21:52:02.708Z,18.07
2022-09-07T21:54:31.834Z,18.46
2022-09-07T21:57:02.443Z,18.57
2022-09-07T21:59:32.002Z,18.61
2022-09-07T22:02:01.319Z,18.57
2022-09-07T22:04:31.227Z,18.58
2022-09-07T22:07:00.521Z,18.70
2022-09-07T22:09:29.681Z,18.63
2022-09-07T22:12:00.192Z,18.56
2022-09-07T22:14:30.766Z,18.59
2022-09-07T22:17:00.291Z,18.58
2022-09-07T22:19:29.481Z,18.60
2022-09-07T22:21:58.919Z,18.37
2022-09-07T22:24:28.343Z,18.54
2022-09-07T22:26:57.556Z,18.56
2022-09-07T22:29:27.038Z,18.52
2022-09-07T22:31:57.875Z,18.53
2022-09-07T22:34:28.449Z,18.59
2022-09-07T22:36:58.384Z,18.65
2022-09-07T22:39:27.863Z,18.64
2022-09-07T22:41:57.029Z,18.64
2022-09-07T22:44:27.611Z,18.63
2022-09-07T22:46:58.207Z,18.59
2022-09-07T22:49:27.735Z,18.56
2022-09-07T22:51:57.046Z,18.57
2022-09-07T22:54:26.169Z,18.49
2022-09-07T22:56:55.370Z,18.51
2022-09-07T22:59:24.498Z,18.53
2022-09-07T23:01:54.118Z,18.55
2022-09-07T23:04:27.434Z,18.57
2022-09-07T23:07:00.204Z,18.59
2022-09-07T23:09:29.682Z,18.51
2022-09-07T23:11:58.865Z,18.55
2022-09-07T23:14:28.180Z,18.42
2022-09-07T23:16:57.558Z,18.49
2022-09-07T23:19:28.252Z,18.41
2022-09-07T23:21:57.446Z,18.47
2022-09-07T23:24:26.650Z,18.45
2022-09-07T23:26:55.831Z,18.44
2022-09-07T23:29:25.009Z,18.44
2022-09-07T23:31:54.203Z,18.52
2022-09-07T23:34:23.412Z,18.30
2022-09-07T23:36:54.145Z,18.50
2022-09-07T23:39:23.555Z,18.44
2022-09-07T23:41:52.729Z,18.47
2022-09-07T23:44:22.172Z,18.36
2022-09-07T23:46:51.473Z,18.49
2022-09-07T23:49:21.503Z,18.50
2022-09-07T23:51:50.694Z,18.51
2022-09-07T23:54:21.305Z,18.53
2022-09-07T23:56:50.484Z,18.53
2022-09-07T23:59:19.656Z,18.55
